createdAt,value
2024-01-28T00:02:26.751Z,99.01
2024-01-28T00:04:54.110Z,99.25
2024-01-28T00:07:21.025Z,99.11
2024-01-28T00:09:48.636Z,99.19
2024-01-28T00:12:15.624Z,99.10
2024-01-28T00:14:42.871Z,99.05
2024-01-28T00:17:12.064Z,98.83
2024-01-28T00:19:39.891Z,99.08
2024-01-28T00:22:07.369Z,98.98
2024-01-28T00:24:34.408Z,99.54
2024-01-28T00:27:01.625Z,99.30
2024-01-28T00:29:31.525Z,99.13
2024-01-28T00:32:00.332Z,98.87
2024-01-28T00:34:27.460Z,99.15
2024-01-28T00:36:55.081Z,99.04
2024-01-28T00:39:23.185Z,99.27
2024-01-28T00:41:50.300Z,98.89
2024-01-28T00:44:17.241Z,99.01
2024-01-28T00:46:44.259Z,98.53
2024-01-28T00:49:12.814Z,98.89
2024-01-28T00:51:40.152Z,99.14
2024-01-28T00:54:08.686Z,99.49
2024-01-28T00:56:35.552Z,99.44
2024-01-28T00:59:02.566Z,98.94
2024-01-28T01:01:29.640Z,99.06
2024-01-28T01:03:57.001Z,98.85
2024-01-28T01:06:25.448Z,99.42
2024-01-28T01:08:52.405Z,99.20
2024-01-28T01:11:19.787Z,99.15
2024-01-28T01:13:46.805Z,99.47
2024-01-28T01:16:14.031Z,98.94
2024-01-28T01:18:41.135Z,99.21
2024-01-28T01:21:08.110Z,98.85
2024-01-28T01:23:35.093Z,98.87
2024-01-28T01:26:02.107Z,98.98
2024-01-28T01:28:33.386Z,98.98
2024-01-28T01:31:01.380Z,98.72
2024-01-28T01:33:28.495Z,99.43
2024-01-28T01:35:55.634Z,98.81
2024-01-28T01:38:23.385Z,99.06
2024-01-28T01:40:50.663Z,99.25
2024-01-28T01:43:18.501Z,99.23
2024-01-28T01:45:45.776Z,99.18
2024-01-28T01:48:14.230Z,99.18
2024-01-28T01:50:42.291Z,99.52
2024-01-28T01:53:11.318Z,99.40
2024-01-28T01:55:41.702Z,99.13
2024-01-28T01:58:09.590Z,98.82
2024-01-28T02:00:37.813Z,98.92
2024-01-28T02:03:05.311Z,99.56
2024-01-28T02:05:32.754Z,99.05
2024-01-28T02:08:00.616Z,98.81
2024-01-28T02:10:27.698Z,99.05
2024-01-28T02:12:54.706Z,98.30
2024-01-28T02:15:21.933Z,98.89
2024-01-28T02:17:49.569Z,98.37
2024-01-28T02:20:17.075Z,99.07
2024-01-28T02:22:43.973Z,99.08
2024-01-28T02:25:10.985Z,98.84
2024-01-28T02:27:40.718Z,98.90
2024-01-28T02:30:08.272Z,98.73
2024-01-28T02:32:35.287Z,98.55
2024-01-28T02:35:02.991Z,99.11
2024-01-28T02:37:30.041Z,98.66
2024-01-28T02:39:56.967Z,98.68
2024-01-28T02:42:24.347Z,98.76
2024-01-28T02:44:51.439Z,98.83
2024-01-28T02:47:18.318Z,98.21
2024-01-28T02:49:45.406Z,98.30
2024-01-28T02:52:12.305Z,98.20
2024-01-28T02:54:39.475Z,98.05
2024-01-28T02:57:06.526Z,98.22
2024-01-28T02:59:33.470Z,98.11
2024-01-28T03:02:00.425Z,97.84
2024-01-28T03:04:27.496Z,98.12
2024-01-28T03:06:55.635Z,98.32
2024-01-28T03:09:22.706Z,98.36
2024-01-28T03:11:49.579Z,97.73
2024-01-28T03:14:16.522Z,98.43
2024-01-28T03:16:43.337Z,97.97
2024-01-28T03:19:10.884Z,97.73
2024-01-28T03:21:38.033Z,98.13
2024-01-28T03:24:05.213Z,97.97
2024-01-28T03:26:35.396Z,97.51
2024-01-28T03:29:08.672Z,97.37
2024-01-28T03:31:35.803Z,97.58
2024-01-28T03:34:03.023Z,97.43
2024-01-28T03:36:30.121Z,97.53
2024-01-28T03:38:57.066Z,97.44
2024-01-28T03:41:24.168Z,97.17
2024-01-28T03:43:52.222Z,97.64
2024-01-28T03:46:19.164Z,97.59
2024-01-28T03:48:46.178Z,97.30
2024-01-28T03:51:13.862Z,96.83
2024-01-28T03:53:40.935Z,97.09
2024-01-28T03:56:08.053Z,97.35
2024-01-28T03:58:35.042Z,97.56
2024-01-28T04:01:02.148Z,96.85
2024-01-28T04:03:29.242Z,96.99
2024-01-28T04:05:56.164Z,97.02
2024-01-28T04:08:23.202Z,96.67
2024-01-28T04:10:50.248Z,96.63
2024-01-28T04:13:17.388Z,96.86
2024-01-28T04:15:44.313Z,96.87
2024-01-28T04:18:11.402Z,96.89
2024-01-28T04:20:39.669Z,97.41
2024-01-28T04:23:06.680Z,96.49
2024-01-28T04:25:33.598Z,96.57
2024-01-28T04:28:00.435Z,97.21
2024-01-28T04:30:27.919Z,97.07
2024-01-28T04:32:55.037Z,96.72
2024-01-28T04:35:22.176Z,97.01
2024-01-28T04:37:49.020Z,97.01
2024-01-28T04:40:16.075Z,97.28
2024-01-28T04:42:43.111Z,96.63
2024-01-28T04:45:11.884Z,96.99
2024-01-28T04:47:40.042Z,96.28
2024-01-28T04:50:08.297Z,96.60
2024-01-28T04:52:35.328Z,96.82
2024-01-28T04:55:02.394Z,96.99
2024-01-28T04:57:29.609Z,96.76
2024-01-28T04:59:56.908Z,96.84
2024-01-28T05:02:23.770Z,96.29
2024-01-28T05:04:50.837Z,96.22
2024-01-28T05:07:18.993Z,95.90
2024-01-28T05:09:46.952Z,95.91
2024-01-28T05:12:15.123Z,95.59
2024-01-28T05:14:42.659Z,95.38
2024-01-28T05:17:09.585Z,95.76
2024-01-28T05:19:37.258Z,95.38
2024-01-28T05:22:05.370Z,94.91
2024-01-28T05:24:32.660Z,95.93
2024-01-28T05:27:00.239Z,95.40
2024-01-28T05:29:27.241Z,95.79
2024-01-28T05:31:54.195Z,96.03
2024-01-28T05:34:21.377Z,95.82
2024-01-28T05:36:52.060Z,95.36
2024-01-28T05:39:19.157Z,95.83
2024-01-28T05:41:48.255Z,96.21
2024-01-28T05:44:16.609Z,96.33
2024-01-28T05:46:43.553Z,95.48
2024-01-28T05:49:12.791Z,95.41
2024-01-28T05:51:42.700Z,95.51
2024-01-28T05:54:10.239Z,95.40
2024-01-28T05:56:37.194Z,95.53
2024-01-28T05:59:04.435Z,95.37
2024-01-28T06:01:32.189Z,95.60
2024-01-28T06:03:59.328Z,95.31
2024-01-28T06:06:26.484Z,95.92
2024-01-28T06:08:56.148Z,96.10
2024-01-28T06:11:23.944Z,96.00
2024-01-28T06:13:50.953Z,95.71
2024-01-28T06:16:18.909Z,95.63
2024-01-28T06:18:46.120Z,95.65
2024-01-28T06:21:13.449Z,95.84
2024-01-28T06:23:42.339Z,95.16
2024-01-28T06:26:11.880Z,95.29
2024-01-28T06:28:39.328Z,95.37
2024-01-28T06:31:06.226Z,95.37
2024-01-28T06:33:33.246Z,94.74
2024-01-28T06:36:01.407Z,95.03
2024-01-28T06:38:28.808Z,95.13
2024-01-28T06:40:56.804Z,95.23
2024-01-28T06:43:26.678Z,94.83
2024-01-28T06:45:54.325Z,94.10
2024-01-28T06:48:22.637Z,93.99
2024-01-28T06:50:50.733Z,94.77
2024-01-28T06:53:17.740Z,95.54
2024-01-28T06:55:44.728Z,94.57
2024-01-28T06:58:11.680Z,94.84
2024-01-28T07:00:38.845Z,94.50
2024-01-28T07:03:06.264Z,94.20
2024-01-28T07:05:34.074Z,94.01
2024-01-28T07:08:01.078Z,93.69
2024-01-28T07:10:29.356Z,93.58
2024-01-28T07:12:56.477Z,93.52
2024-01-28T07:15:23.428Z,93.54
2024-01-28T07:17:53.022Z,93.16
2024-01-28T07:20:20.436Z,92.74
2024-01-28T07:22:47.425Z,93.15
2024-01-28T07:25:15.277Z,93.25
2024-01-28T07:27:42.671Z,93.04
2024-01-28T07:30:09.899Z,93.06
2024-01-28T07:32:39.342Z,93.45
2024-01-28T07:35:06.850Z,93.61
2024-01-28T07:37:34.470Z,93.00
2024-01-28T07:40:01.385Z,92.18
2024-01-28T07:42:28.447Z,92.25
2024-01-28T07:44:55.386Z,92.99
2024-01-28T07:47:22.315Z,92.62
2024-01-28T07:49:49.495Z,92.44
2024-01-28T07:52:16.508Z,91.68
2024-01-28T07:54:43.459Z,92.09
2024-01-28T07:57:10.627Z,92.47
2024-01-28T07:59:37.612Z,93.50
2024-01-28T08:02:06.092Z,93.15
2024-01-28T08:04:33.262Z,92.89
2024-01-28T08:07:00.336Z,93.29
2024-01-28T08:09:29.378Z,93.20
2024-01-28T08:11:56.485Z,92.90
2024-01-28T08:14:28.596Z,92.69
2024-01-28T08:16:56.515Z,92.58
2024-01-28T08:19:23.630Z,92.27
2024-01-28T08:21:50.705Z,91.92
2024-01-28T08:24:17.668Z,91.92
2024-01-28T08:26:45.865Z,91.89
2024-01-28T08:29:12.782Z,92.52
2024-01-28T08:31:39.811Z,93.17
2024-01-28T08:34:07.625Z,92.92
2024-01-28T08:36:36.201Z,93.36
2024-01-28T08:39:05.528Z,92.45
2024-01-28T08:41:36.095Z,91.72
2024-01-28T08:44:06.313Z,92.71
2024-01-28T08:46:33.369Z,93.06
2024-01-28T08:49:00.367Z,93.58
2024-01-28T08:51:27.541Z,93.36
2024-01-28T08:53:54.541Z,92.71
2024-01-28T08:56:22.228Z,92.35
2024-01-28T08:58:49.178Z,92.38
2024-01-28T09:01:17.235Z,91.28
2024-01-28T09:03:44.604Z,92.10
2024-01-28T09:06:11.627Z,92.13
2024-01-28T09:08:38.719Z,92.77
2024-01-28T09:11:05.771Z,92.78
2024-01-28T09:13:32.796Z,94.13
2024-01-28T09:16:00.765Z,94.28
2024-01-28T09:18:27.865Z,94.55
2024-01-28T09:20:55.425Z,94.36
2024-01-28T09:23:24.841Z,94.43
2024-01-28T09:25:51.773Z,94.12
2024-01-28T09:28:19.161Z,95.18
2024-01-28T09:30:47.666Z,94.74
2024-01-28T09:33:15.333Z,94.16
2024-01-28T09:35:44.729Z,94.67
2024-01-28T09:38:11.646Z,94.86
2024-01-28T09:40:39.645Z,95.49
2024-01-28T09:43:30.428Z,94.88
2024-01-28T09:45:58.511Z,93.93
2024-01-28T09:48:25.967Z,93.54
2024-01-28T09:50:54.235Z,93.67
2024-01-28T09:53:21.258Z,91.93
2024-01-28T09:55:49.362Z,90.38
2024-01-28T09:58:16.489Z,88.49
2024-01-28T10:00:44.254Z,88.81
2024-01-28T10:03:11.354Z,90.76
2024-01-28T10:05:40.807Z,91.12
2024-01-28T10:08:08.307Z,90.79
2024-01-28T10:10:36.577Z,90.98
2024-01-28T10:13:04.741Z,91.65
2024-01-28T10:15:35.166Z,89.97
2024-01-28T10:18:02.637Z,90.86
2024-01-28T10:20:30.229Z,89.61
2024-01-28T10:22:57.205Z,89.12
2024-01-28T10:25:24.223Z,88.98
2024-01-28T10:27:52.059Z,88.56
2024-01-28T10:30:20.826Z,86.84
2024-01-28T10:32:48.276Z,87.62
2024-01-28T10:35:18.644Z,85.60
2024-01-28T10:37:54.429Z,86.69
2024-01-28T10:40:25.047Z,88.05
2024-01-28T10:42:59.363Z,89.04
2024-01-28T10:45:28.751Z,88.91
2024-01-28T10:47:57.005Z,88.38
2024-01-28T10:50:29.084Z,89.94
2024-01-28T10:52:58.270Z,88.89
2024-01-28T10:55:26.226Z,89.79
2024-01-28T10:57:54.887Z,89.44
2024-01-28T11:00:23.119Z,89.35
2024-01-28T11:02:51.256Z,90.30
2024-01-28T11:05:19.568Z,89.08
2024-01-28T11:07:49.089Z,89.53
2024-01-28T11:10:18.573Z,88.04
2024-01-28T11:12:45.737Z,89.30
2024-01-28T11:15:16.289Z,88.31
2024-01-28T11:17:43.915Z,88.61
2024-01-28T11:20:13.316Z,87.01
2024-01-28T11:22:49.418Z,86.92
2024-01-28T11:25:21.655Z,88.28
2024-01-28T11:27:53.750Z,89.28
2024-01-28T11:30:22.936Z,90.14
2024-01-28T11:32:51.420Z,90.61
2024-01-28T11:35:18.735Z,90.15
2024-01-28T11:37:58.889Z,89.97
2024-01-28T11:40:33.268Z,90.46
2024-01-28T11:43:00.903Z,90.68
2024-01-28T11:45:28.888Z,90.30
2024-01-28T11:47:55.932Z,90.39
2024-01-28T11:50:22.829Z,90.54
2024-01-28T11:52:50.722Z,91.15
2024-01-28T11:55:18.673Z,91.03
2024-01-28T11:57:48.291Z,91.06
2024-01-28T12:00:16.277Z,90.91
2024-01-28T12:02:44.243Z,91.11
2024-01-28T12:05:12.024Z,91.28
2024-01-28T12:07:40.216Z,89.93
2024-01-28T12:10:09.328Z,90.04
2024-01-28T12:12:36.443Z,87.75
2024-01-28T12:15:04.868Z,89.16
2024-01-28T12:17:43.730Z,89.38
2024-01-28T12:20:24.448Z,89.62
2024-01-28T12:22:52.051Z,89.11
2024-01-28T12:25:23.861Z,89.10
2024-01-28T12:27:52.807Z,88.47
2024-01-28T12:30:21.350Z,87.24
2024-01-28T12:32:50.839Z,88.17
2024-01-28T12:35:18.274Z,88.43
2024-01-28T12:37:47.990Z,88.30
2024-01-28T12:40:14.995Z,88.41
2024-01-28T12:42:42.521Z,88.69
2024-01-28T12:45:11.741Z,88.24
2024-01-28T12:47:39.202Z,87.35
2024-01-28T12:50:07.312Z,87.01
2024-01-28T12:52:36.539Z,87.07
2024-01-28T12:55:07.525Z,86.92
2024-01-28T12:57:36.909Z,86.86
2024-01-28T13:00:07.578Z,86.30
2024-01-28T13:02:35.352Z,84.45
2024-01-28T13:05:03.153Z,84.93
2024-01-28T13:07:30.250Z,83.75
2024-01-28T13:09:58.818Z,85.44
2024-01-28T13:12:28.288Z,86.61
2024-01-28T13:14:56.149Z,87.34
2024-01-28T13:17:24.338Z,87.61
2024-01-28T13:19:55.553Z,86.64
2024-01-28T13:22:22.638Z,87.03
2024-01-28T13:24:53.973Z,86.22
2024-01-28T13:27:22.256Z,86.94
2024-01-28T13:29:50.374Z,86.31
2024-01-28T13:32:19.352Z,85.67
2024-01-28T13:34:47.517Z,86.30
2024-01-28T13:37:14.763Z,83.94
2024-01-28T13:39:42.220Z,85.38
2024-01-28T13:42:09.712Z,84.10
2024-01-28T13:44:37.727Z,84.25
2024-01-28T13:47:05.354Z,84.88
2024-01-28T13:49:33.035Z,84.38
2024-01-28T13:52:00.157Z,84.12
2024-01-28T13:54:27.274Z,83.66
2024-01-28T13:56:58.434Z,84.62
2024-01-28T13:59:25.498Z,83.84
2024-01-28T14:01:52.576Z,83.27
2024-01-28T14:04:19.670Z,83.38
2024-01-28T14:06:46.828Z,83.34
2024-01-28T14:09:17.741Z,83.20
2024-01-28T14:11:45.965Z,82.54
2024-01-28T14:14:13.032Z,81.35
2024-01-28T14:16:43.314Z,79.80
2024-01-28T14:19:10.338Z,82.41
2024-01-28T14:21:37.451Z,83.43
2024-01-28T14:24:04.570Z,80.93
2024-01-28T14:26:31.656Z,80.40
2024-01-28T14:28:58.569Z,80.46
2024-01-28T14:31:25.786Z,81.75
2024-01-28T14:33:54.701Z,81.16
2024-01-28T14:36:22.106Z,83.07
2024-01-28T14:38:49.621Z,84.35
2024-01-28T14:41:17.449Z,82.83
2024-01-28T14:43:45.323Z,83.45
2024-01-28T14:46:12.891Z,81.04
2024-01-28T14:48:41.928Z,80.99
2024-01-28T14:51:09.143Z,81.19
2024-01-28T14:53:37.505Z,80.27
2024-01-28T14:56:05.197Z,80.97
2024-01-28T14:58:32.324Z,81.81
2024-01-28T15:00:59.617Z,82.54
2024-01-28T15:03:26.858Z,82.11
2024-01-28T15:05:54.342Z,82.47
2024-01-28T15:08:22.264Z,82.38
2024-01-28T15:10:50.693Z,81.52
2024-01-28T15:13:17.669Z,82.89
2024-01-28T15:15:44.767Z,82.45
2024-01-28T15:18:13.387Z,82.08
2024-01-28T15:20:40.633Z,82.97
2024-01-28T15:23:07.742Z,82.01
2024-01-28T15:25:34.741Z,82.29
2024-01-28T15:28:01.876Z,82.25
2024-01-28T15:30:28.930Z,82.55
2024-01-28T15:32:56.121Z,83.67
2024-01-28T15:35:23.805Z,81.60
2024-01-28T15:37:51.500Z,82.39
2024-01-28T15:40:18.945Z,82.50
2024-01-28T15:42:46.308Z,83.71
2024-01-28T15:45:14.332Z,84.81
2024-01-28T15:47:43.642Z,84.44
2024-01-28T15:50:10.999Z,84.42
2024-01-28T15:52:37.911Z,84.32
2024-01-28T15:55:05.204Z,84.71
2024-01-28T15:57:32.683Z,85.01
2024-01-28T16:00:06.822Z,85.97
2024-01-28T16:02:35.217Z,85.83
2024-01-28T16:05:02.549Z,85.51
2024-01-28T16:07:29.764Z,85.73
2024-01-28T16:09:57.772Z,85.45
2024-01-28T16:12:26.627Z,86.39
2024-01-28T16:14:53.583Z,86.05
2024-01-28T16:17:24.702Z,86.08
2024-01-28T16:19:52.234Z,86.53
2024-01-28T16:22:20.792Z,86.09
2024-01-28T16:24:49.337Z,85.99
2024-01-28T16:27:17.835Z,85.99
2024-01-28T16:29:46.607Z,86.99
2024-01-28T16:32:13.988Z,86.88
2024-01-28T16:34:41.278Z,87.38
2024-01-28T16:37:08.870Z,87.33
2024-01-28T16:39:36.506Z,87.93
2024-01-28T16:42:03.546Z,88.00
2024-01-28T16:44:30.541Z,88.55
2024-01-28T16:46:57.575Z,89.17
2024-01-28T16:49:26.043Z,89.14
2024-01-28T16:51:53.670Z,89.44
2024-01-28T16:54:20.683Z,89.04
2024-01-28T16:56:48.195Z,89.30
2024-01-28T16:59:15.597Z,89.26
2024-01-28T17:01:44.396Z,89.60
2024-01-28T17:04:11.642Z,89.96
2024-01-28T17:06:39.929Z,89.52
2024-01-28T17:09:07.053Z,89.62
2024-01-28T17:11:34.050Z,88.46
2024-01-28T17:14:03.978Z,89.34
2024-01-28T17:16:31.066Z,89.58
2024-01-28T17:18:58.206Z,89.84
2024-01-28T17:21:25.219Z,89.25
2024-01-28T17:23:52.409Z,89.05
2024-01-28T17:26:19.997Z,88.71
2024-01-28T17:28:47.006Z,88.18
2024-01-28T17:31:14.049Z,88.58
2024-01-28T17:33:41.328Z,88.79
2024-01-28T17:36:08.661Z,89.33
2024-01-28T17:38:35.743Z,88.63
2024-01-28T17:41:03.009Z,88.85
2024-01-28T17:43:30.001Z,89.33
2024-01-28T17:45:57.447Z,89.56
2024-01-28T17:48:25.563Z,89.20
2024-01-28T17:50:53.482Z,89.57
2024-01-28T17:53:20.423Z,88.40
2024-01-28T17:55:47.472Z,88.50
2024-01-28T17:58:14.508Z,89.34
2024-01-28T18:00:41.450Z,89.59
2024-01-28T18:03:08.633Z,89.73
2024-01-28T18:05:35.573Z,89.59
2024-01-28T18:08:02.687Z,89.81
2024-01-28T18:10:31.064Z,89.66
2024-01-28T18:12:59.172Z,88.72
2024-01-28T18:15:27.199Z,88.42
2024-01-28T18:17:54.964Z,89.32
2024-01-28T18:20:24.848Z,89.48
2024-01-28T18:22:51.750Z,89.63
2024-01-28T18:25:19.047Z,89.99
2024-01-28T18:27:47.558Z,90.14
2024-01-28T18:30:14.590Z,90.63
2024-01-28T18:32:41.812Z,90.58
2024-01-28T18:35:09.255Z,90.60
2024-01-28T18:37:37.753Z,91.40
2024-01-28T18:40:05.342Z,91.48
2024-01-28T18:42:32.579Z,92.36
2024-01-28T18:44:59.428Z,91.89
2024-01-28T18:47:26.824Z,92.10
2024-01-28T18:49:53.945Z,91.68
2024-01-28T18:52:21.097Z,91.75
2024-01-28T18:54:48.126Z,91.41
2024-01-28T18:57:15.279Z,91.72
2024-01-28T18:59:42.343Z,91.95
2024-01-28T19:02:09.621Z,91.73
2024-01-28T19:04:36.766Z,92.06
2024-01-28T19:07:03.906Z,91.67
2024-01-28T19:09:30.864Z,91.07
2024-01-28T19:11:58.793Z,91.41
2024-01-28T19:14:27.662Z,91.34
2024-01-28T19:16:54.787Z,91.22
2024-01-28T19:19:22.467Z,90.61
2024-01-28T19:21:49.472Z,90.38
2024-01-28T19:24:16.536Z,91.03
2024-01-28T19:26:43.790Z,90.97
2024-01-28T19:29:10.904Z,91.53
2024-01-28T19:31:38.048Z,91.86
2024-01-28T19:34:04.983Z,92.78
2024-01-28T19:36:36.851Z,92.68
2024-01-28T19:39:04.501Z,93.06
2024-01-28T19:41:31.631Z,93.23
2024-01-28T19:43:58.900Z,93.11
2024-01-28T19:46:27.440Z,92.87
2024-01-28T19:48:55.289Z,93.29
2024-01-28T19:51:26.470Z,93.02
2024-01-28T19:53:54.935Z,93.35
2024-01-28T19:56:21.888Z,93.15
2024-01-28T19:58:49.603Z,93.81
2024-01-28T20:01:16.766Z,93.40
2024-01-28T20:03:43.953Z,93.33
2024-01-28T20:06:19.070Z,93.10
2024-01-28T20:08:55.207Z,93.59
2024-01-28T20:11:22.092Z,93.12
2024-01-28T20:13:49.848Z,92.94
2024-01-28T20:16:17.168Z,92.62
2024-01-28T20:18:44.286Z,92.95
2024-01-28T20:21:11.209Z,92.21
2024-01-28T20:23:40.489Z,93.18
2024-01-28T20:26:07.525Z,92.77
2024-01-28T20:28:36.143Z,92.92
2024-01-28T20:31:03.272Z,93.38
2024-01-28T20:33:30.394Z,93.10
2024-01-28T20:35:57.642Z,93.49
2024-01-28T20:38:25.660Z,94.00
2024-01-28T20:40:52.869Z,93.04
2024-01-28T20:43:19.900Z,92.92
2024-01-28T20:45:47.210Z,92.90
2024-01-28T20:48:14.841Z,92.29
2024-01-28T20:50:41.946Z,91.77
2024-01-28T20:53:09.116Z,92.11
2024-01-28T20:55:35.968Z,91.86
2024-01-28T20:58:03.180Z,92.44
2024-01-28T21:00:30.221Z,91.99
2024-01-28T21:02:57.522Z,92.15
2024-01-28T21:05:24.741Z,93.06
2024-01-28T21:07:51.796Z,93.67
2024-01-28T21:10:18.915Z,93.82
2024-01-28T21:12:45.947Z,93.79
2024-01-28T21:15:13.006Z,93.24
2024-01-28T21:17:40.179Z,94.13
2024-01-28T21:20:07.710Z,94.04
2024-01-28T21:22:35.385Z,93.62
2024-01-28T21:25:02.477Z,94.23
2024-01-28T21:27:29.808Z,94.59
2024-01-28T21:29:57.900Z,95.27
2024-01-28T21:32:24.926Z,95.13
2024-01-28T21:34:52.005Z,95.33
2024-01-28T21:37:19.204Z,95.12
2024-01-28T21:39:46.383Z,95.28
2024-01-28T21:42:14.576Z,95.16
2024-01-28T21:44:41.648Z,96.10
2024-01-28T21:47:08.919Z,95.84
2024-01-28T21:49:40.156Z,95.41
2024-01-28T21:52:08.085Z,95.68
2024-01-28T21:54:35.130Z,94.84
2024-01-28T21:57:02.269Z,94.93
2024-01-28T21:59:29.184Z,94.30
2024-01-28T22:01:56.282Z,94.61
2024-01-28T22:04:24.193Z,95.42
2024-01-28T22:06:51.535Z,95.22
2024-01-28T22:09:18.565Z,95.83
2024-01-28T22:11:48.674Z,95.15
2024-01-28T22:14:16.376Z,95.24
2024-01-28T22:16:43.474Z,95.83
2024-01-28T22:19:10.984Z,95.58
2024-01-28T22:21:38.097Z,95.23
2024-01-28T22:24:05.480Z,95.10
2024-01-28T22:26:32.452Z,95.34
2024-01-28T22:28:59.583Z,95.21
2024-01-28T22:31:26.735Z,95.46
2024-01-28T22:33:53.824Z,95.06
2024-01-28T22:36:20.923Z,95.38
2024-01-28T22:38:47.822Z,94.12
2024-01-28T22:41:16.749Z,94.33
2024-01-28T22:43:44.734Z,93.24
2024-01-28T22:46:11.917Z,93.96
2024-01-28T22:48:39.381Z,94.42
2024-01-28T22:51:06.606Z,94.79
2024-01-28T22:53:33.747Z,94.32
2024-01-28T22:56:03.458Z,94.63
2024-01-28T22:58:30.400Z,94.62
2024-01-28T23:00:57.566Z,94.43
2024-01-28T23:03:24.617Z,94.56
2024-01-28T23:05:51.760Z,94.03
2024-01-28T23:08:18.681Z,94.31
2024-01-28T23:10:45.637Z,94.19
2024-01-28T23:13:12.644Z,93.97
2024-01-28T23:15:39.740Z,93.93
2024-01-28T23:18:06.851Z,94.02
2024-01-28T23:20:34.977Z,93.36
2024-01-28T23:23:02.219Z,93.19
2024-01-28T23:25:29.217Z,93.78
2024-01-28T23:27:56.643Z,93.99
2024-01-28T23:30:24.311Z,94.06
2024-01-28T23:32:51.368Z,94.07
2024-01-28T23:35:18.474Z,93.98
2024-01-28T23:37:45.331Z,93.54
2024-01-28T23:40:12.819Z,93.66
2024-01-28T23:42:40.078Z,93.64
2024-01-28T23:45:10.703Z,94.40
2024-01-28T23:47:37.790Z,94.62
2024-01-28T23:50:08.404Z,94.07
2024-01-28T23:52:35.743Z,93.67
2024-01-28T23:55:03.458Z,93.64
2024-01-28T23:57:30.804Z,94.12
2024-01-28T23:59:57.762Z,93.96
